MMDO/DGO METAR and TAF weather

Enter ICAO airport designator
Station Type Date Time Source
MMDO METAR 2019/06/18 02:46 UTC NOAA

MMDO 180246Z 22011KT 8SM SCT025CB BKN030 OVC200 22/10 A3019 RMK SLP070 52028 970 8/303 BINOVC ISOL AC


Station Type Date Time Source
MMDO Decoded METAR 2019/06/18 02:46 UTC NOAA

Durango Airport, Mexico (MMDO) 24-08N 104-32W
Jun 17, 2019 - 10:46 PM EDT / 2019.06.18 0246 UTC
Wind: from the SW (220 degrees) at 13 MPH (11 KT):0
Visibility: 8 mile(s):0
Sky conditions: overcast
Weather: Cumulonimbus clouds observed
Temperature: 71 F (22 C)
Dew Point: 50 F (10 C)
Relative Humidity: 46%
Pressure (altimeter): 30.19 in. Hg (1022 hPa)
Pressure tendency: 0.08 inches (2.8 hPa) higher than three hours ago
ob: MMDO 180246Z 22011KT 8SM SCT025CB BKN030 OVC200 22/10 A3019 RMK SLP070 52028 970 8/303 BINOVC ISOL AC
cycle: 3

Station Type Date Time Source
MMDO TAF 2019/06/17 18:39 UTC NOAA

TAF MMDO 171636Z 1718/1818 12010KT P6SM SCT030 BKN080
FM172000 20010KT P6SM BKN030
TEMPO 1721/1801 5SM TSRA BKN030CB
FM180300 00000KT P6SM BKN030 BKN080
FM180600 00000KT P6SM BKN080

Example: see airport list